Create Custom Reports and Graphics: Custom Report

Latest Observations

Map

15 Minute Data

Napa County - East

Latest Observations

15 Minute Data | America/Los_Angeles
as of 2/17/19 6:36 AM PST
Station Date Time Temp (°F) Dew Pt (°F) RH (%) Wind Dir (°) Wind Spd (mph) Wind Gust (mph) Latest Rain (In) Daily Rain (In) Daily Min Temp (°F) Daily Max Temp (°F) Day
Pope Valley - Weeks Lake 2/17/19 0630 35.2   1.2 33.4   0.0 93   5 WNW | 291 1.4   0.9 3.9   1.3 0.00   0.00 0.02   0.00 31.5   0.4 36.5   5.2 2/17/19
Dollarhide - STS 2/17/19 0630 37.4   3.5 35.1   2.2 91   4 NNW | 327 5.2   0.3 8.6   1.3 0.00   0.00 0.01   0.02 35.0   4.8 39.1   2.8 2/17/19
1AS Remote - STS 2/17/19 0630 32.2   5.3 32.0   4.9 99   2 S | 191 0.3   1.7 1.2   3.3 - - 31.4   4.9 37.7   4.6 2/17/19
17B Remote - STS 2/17/19 0630 34.0   2.0 33.3   2.7 97   3 - - - - - 33.3   2.2 38.6   4.0 2/17/19
18A Remote - STS 2/17/19 0630 32.7   5.7 32.6   4.0 100   6 - - - - - 32.2   4.7 37.7   4.4 2/17/19
Brown Estate-Lower Chiles Valley 2/17/19 0630 35.9   1.9 35.1   2.6 97   3 SSW | 207 3.1   0.2 5.0   4.3 0.00   0.00 0.03   0.07 34.6   1.8 38.3   3.3 2/17/19
Moss Creek Vineyard 2/17/19 0630 38.1   2.6 34.6   4.2 87   6 - - - 0.00   0.00 0.01   0.05 36.8   3.1 40.9   1.4 2/17/19

Latest Observation

14 Stations

15 Minute Data | America/Los_Angeles
as of 2/17/19 6:36 AM PST
Station Date Time Temp (°F) RH (%) Dew Pt (°F) Wind Dir (°) Wind Spd (mph) Wind Gust (mph) Latest Rain (In) Daily Rain (In) Daily Min Temp (°F) Daily Max Temp (°F) Day
Calistoga 2/17/19 0630 35.1   4.7 99   1 35.0   4.8 - - - 0.00 0.08 34.4   2.8 39.1   1.5 2/17/19
St. Helena (TSH) 2/17/19 0630 35.8   4.1 99   0 35.7   4.2 NNW | 337 2.6   1.7 3.9   2.0 0.00 0.07 35.2   4.2 38.0   3.0 2/17/19
Rutherford Hill - Estate 2/17/19 0630 37.0   1.6 95   5 35.7   2.8 NNW | 342 4.0   3.2 6.8   4.4 0.00 0.02 35.5   2.8 39.0   2.4 2/17/19
Mee Lane - MKV 2/17/19 0630 34.2   6.1 100   0 34.2   6.2 NNW | 342 2.4   1.3 4.4   1.1 0.00 0.02 33.7   5.5 39.0   4.2 2/17/19
Rutherford - STS 2/17/19 0630 32.8   7.0 100   0 32.8   7.0 NNW | 340 0.8   0.3 2.2   0.0 0.00 0.02 32.4   6.0 38.8   3.9 2/17/19
Skellenger 2/17/19 0630 34.8   4.6 98   1 34.2   4.8 NE | 49 1.5   1.3 2.5   0.9 0.00 0.03 33.8   4.3 40.0   2.9 2/17/19
To Kalon 2/17/19 0630 35.3   3.8 100   0 35.3   3.9 WNW | 286 1.3   0.1 2.7   0.8 0.00 0.03 34.8   4.1 39.3   3.3 2/17/19
Wappo Hill 2/17/19 0630 36.2   2.9 98   2 35.7   3.5 W | 276 0.3   0.2 1.8   1.1 0.00 0.07 35.9   2.7 40.5   3.3 2/17/19
Stags Leap District - Chimney Rock 2/17/19 0630 34.4   2.9 96   3 33.3   3.6 ENE | 68 1.3   0.8 2.6   0.9 0.00 0.08 33.7   3.2 39.9   3.8 2/17/19
Napa River Ranch 2/17/19 0630 35.8   1.9 100   0 35.7   1.9 NW | 320 0.2   0.4 1.5   1.0 0.00 0.08 35.4   1.9 40.4   3.4 2/17/19
Truoak 2/17/19 0630 36.9   2.0 100   0 36.9   2.0 NE | 46 0.7   0.2 2.1   0.0 0.00 0.07 36.4   0.6 39.7   3.5 2/17/19
Hunter Ranch 53 2/17/19 0630 36.2   0.0 98   1 35.6   0.3 N | 349 1.5   0.5 2.7   0.2 0.00 0.08 36.1   0.0 40.3   2.7 2/17/19
Linda Vista 2/17/19 0630 36.2   1.6 99   1 36.0   1.8 W | 266 0.3   1.1 1.5   1.9 0.00 0.05 35.4   2.1 40.2   2.5 2/17/19
Napa River Vineyard, Ranch 29 2/17/19 0630 36.0   2.1 100   0 36.0   2.1 ENE | 75 0.6   0.1 1.3   1.1 0.00 0.08 35.4   2.1 39.9   2.8 2/17/19

Latest Observation

17 Stations

15 Minute Data | America/Los_Angeles
as of 2/17/19 6:36 AM PST
Station Date Time Temp (°F) RH (%) Dew Pt (°F) Wind Dir (°) Wind Spd (mph) Wind Gust (mph) Latest Rain (In) Daily Rain (In) Daily Min Temp (°F) Daily Max Temp (°F) Day
Mt. Veeder 2/17/19 0600 34.7   2.2 95   2 33.5   2.9 WNW | 284 1.4   0.0 5.7   1.0 0.00 0.10 34.4   2.5 37.8   1.8 2/17/19
Palmaz 300' 2/17/19 0630 36.7   3.4 98   0 36.4   3.3 NNW | 338 0.5   0.2 1.5   1.4 0.00 0.07 36.1   2.8 41.2   2.1 2/17/19
Palmaz 1200' 2/17/19 0630 36.2   2.6 97   3 35.4   3.3 W | 268 2.8   1.2 7.0   3.4 - - 32.7   5.9 37.5   3.3 2/17/19
Palmaz 1400' 2/17/19 0630 35.8   2.3 94   6 34.3   3.8 W | 279 6.2   4.4 13.9   9.0 0.00 0.07 33.4   4.5 37.2   3.0 2/17/19
Truchard Base 2/17/19 0630 36.6   1.8 99   1 36.4   2.0 NE | 56 1.2   0.4 3.0   0.6 0.00 0.08 36.4   1.6 41.3   1.5 2/17/19
Truchard Remote 2/17/19 0630 34.1   1.0 98   1 33.7   0.7 - - - - - 34.0   1.1 40.8   1.8 2/17/19
Toyon Base (Napa South) 2/17/19 0630 36.8   1.9 96   1 35.8   2.2 NE | 38 0.9   0.1 2.9   0.5 0.00 0.05 36.3   2.1 40.9   1.6 2/17/19
Toyon Remote 1 2/17/19 0630 37.0   1.3 - - - - - - - 36.2   0.7 41.0   1.9 2/17/19
Toyon Remote 2 2/17/19 0630 36.7   0.3 - - - - - - - 35.5   0.8 41.3   1.6 2/17/19
Toyon Remote 3 2/17/19 0630 36.0   0.3 - - - - - - - 35.1   0.3 41.1   1.4 2/17/19
Napa-SE 2/17/19 0630 36.1   1.8 96   0 35.0   1.8 NE | 50 1.0   1.8 2.8   2.2 0.00 0.04 35.1   2.0 42.1   1.4 2/17/19
Napa-SE Upper 2/17/19 0630 38.2   2.4 93   2 36.4   2.9 NW | 323 2.1   1.3 3.9   4.4 0.00 0.03 37.9   2.6 41.5   2.7 2/17/19
Soscol Mtn 2/17/19 0630 37.5   1.6 92   7 35.5   3.6 NW | 306 7.8   2.5 10.2   2.7 0.00 0.04 36.9   2.1 39.8   3.0 2/17/19
Stanly Ranch 45 2/17/19 0630 37.4   4.2 96   5 36.5   2.9 NNE | 16 1.2   1.9 3.5   1.7 0.00 0.02 37.3   3.7 43.4   2.0 2/17/19
Huichica Upper 2/17/19 0630 40.4   1.0 86   6 36.4   2.7 WNW | 298 13.2   3.3 16.8   2.8 - - 37.7   3.2 41.9   1.7 2/17/19
Huichica-Lower 2/17/19 0630 40.1   0.0 88   8 36.9   2.1 NNW | 327 4.3   3.1 7.1   3.2 0.00 0.03 36.9   2.8 40.7   2.2 2/17/19
Diamond R71 (Carneros) 2/17/19 0630 39.8   1.3 90   4 37.0   2.5 NW | 308 8.3   1.8 11.9   0.3 0.00 0.03 38.4   2.4 41.4   1.9 2/17/19